createdAt,value
2023-02-26T00:01:49.357Z,55.40
2023-02-26T00:04:17.849Z,57.70
2023-02-26T00:06:57.294Z,51.58
2023-02-26T00:09:26.503Z,55.42
2023-02-26T00:11:55.790Z,52.55
2023-02-26T00:14:24.937Z,54.67
2023-02-26T00:17:30.717Z,58.33
2023-02-26T00:19:59.455Z,57.33
2023-02-26T00:22:28.664Z,48.75
2023-02-26T00:24:57.019Z,54.65
2023-02-26T00:27:27.548Z,55.38
2023-02-26T00:29:56.555Z,53.70
2023-02-26T00:32:25.547Z,53.35
2023-02-26T00:34:54.358Z,48.72
2023-02-26T00:38:00.602Z,56.33
2023-02-26T00:40:49.897Z,46.80
2023-02-26T00:43:25.207Z,47.90
2023-02-26T00:46:29.968Z,51.08
2023-02-26T00:49:35.470Z,48.10
2023-02-26T00:52:06.194Z,50.65
2023-02-26T00:54:35.542Z,56.08
2023-02-26T00:57:06.177Z,53.85
2023-02-26T00:59:34.707Z,49.28
2023-02-26T01:02:03.320Z,57.42
2023-02-26T01:04:32.206Z,49.75
2023-02-26T01:07:00.883Z,55.15
2023-02-26T01:09:33.686Z,53.88
2023-02-26T01:12:08.820Z,47.50
2023-02-26T01:14:37.855Z,49.20
2023-02-26T01:17:11.957Z,54.40
2023-02-26T01:20:05.638Z,50.50
2023-02-26T01:23:01.133Z,52.03
2023-02-26T01:25:43.412Z,50.65
2023-02-26T01:28:12.105Z,52.25
2023-02-26T01:30:41.311Z,47.10
2023-02-26T01:33:26.454Z,51.70
2023-02-26T01:36:10.634Z,56.05
2023-02-26T01:39:25.210Z,51.45
2023-02-26T01:42:13.557Z,49.30
2023-02-26T01:45:09.761Z,53.10
2023-02-26T01:47:54.151Z,52.30
2023-02-26T01:50:32.327Z,48.85
2023-02-26T01:53:26.478Z,43.88
2023-02-26T01:56:05.562Z,49.78
2023-02-26T01:58:35.874Z,51.20
2023-02-26T02:01:04.618Z,56.80
2023-02-26T02:03:37.831Z,54.70
2023-02-26T02:06:22.932Z,47.60
2023-02-26T02:08:51.811Z,47.67
2023-02-26T02:11:20.156Z,53.63
2023-02-26T02:14:18.368Z,47.45
2023-02-26T02:16:58.207Z,45.05
2023-02-26T02:20:10.206Z,46.00
2023-02-26T02:23:02.067Z,48.50
2023-02-26T02:26:01.613Z,48.00
2023-02-26T02:29:01.543Z,49.90
2023-02-26T02:32:05.297Z,49.47
2023-02-26T02:34:40.411Z,45.63
2023-02-26T02:37:38.388Z,44.97
2023-02-26T02:40:11.673Z,42.83
2023-02-26T02:42:46.850Z,47.85
2023-02-26T02:45:24.036Z,37.00
2023-02-26T02:48:02.054Z,40.65
2023-02-26T02:50:35.775Z,41.22
2023-02-26T02:53:33.277Z,41.65
2023-02-26T02:56:28.232Z,32.85
2023-02-26T02:59:13.580Z,35.70
2023-02-26T03:01:41.900Z,35.40
2023-02-26T03:04:13.905Z,34.13
2023-02-26T03:06:42.644Z,33.15
2023-02-26T03:09:13.415Z,31.63
2023-02-26T03:11:42.619Z,28.92
2023-02-26T03:14:11.994Z,30.35
2023-02-26T03:16:50.325Z,25.75
2023-02-26T03:19:26.419Z,29.55
2023-02-26T03:22:39.698Z,28.15
2023-02-26T03:25:27.573Z,26.08
2023-02-26T03:28:17.869Z,27.55
2023-02-26T03:31:10.508Z,27.55
2023-02-26T03:33:54.670Z,31.77
2023-02-26T03:37:06.103Z,28.25
2023-02-26T03:39:42.287Z,26.25
2023-02-26T03:42:24.776Z,23.63
2023-02-26T03:45:19.424Z,24.73
2023-02-26T03:47:54.205Z,17.77
2023-02-26T03:50:35.681Z,16.73
2023-02-26T03:53:39.076Z,15.73
2023-02-26T03:56:42.153Z,18.25
2023-02-26T03:59:33.692Z,15.35
2023-02-26T04:02:31.790Z,16.20
2023-02-26T04:05:19.006Z,15.85
2023-02-26T04:07:49.359Z,16.38
2023-02-26T04:10:22.067Z,17.25
2023-02-26T04:12:50.404Z,15.70
2023-02-26T04:15:19.354Z,13.93
2023-02-26T04:17:48.225Z,14.55
2023-02-26T04:20:17.253Z,11.68
2023-02-26T04:22:45.605Z,16.77
2023-02-26T04:25:14.230Z,12.60
2023-02-26T04:27:42.995Z,12.30
2023-02-26T04:30:12.876Z,12.07
2023-02-26T04:32:41.705Z,16.17
2023-02-26T04:35:13.163Z,15.35
2023-02-26T04:37:42.251Z,11.13
2023-02-26T04:40:11.897Z,10.57
2023-02-26T04:42:40.591Z,8.95
2023-02-26T04:45:09.978Z,9.23
2023-02-26T04:47:41.309Z,10.38
2023-02-26T04:50:11.066Z,7.30
2023-02-26T04:52:39.408Z,8.60
2023-02-26T04:55:08.852Z,7.03
2023-02-26T04:57:39.959Z,8.10
2023-02-26T05:00:12.109Z,9.93
2023-02-26T05:02:41.810Z,6.40
2023-02-26T05:05:10.602Z,10.80
2023-02-26T05:07:38.993Z,6.13
2023-02-26T05:10:08.464Z,7.00
2023-02-26T05:12:36.947Z,6.13
2023-02-26T05:15:06.521Z,6.85
2023-02-26T05:17:35.474Z,5.68
2023-02-26T05:20:05.443Z,5.88
2023-02-26T05:22:33.874Z,5.28
2023-02-26T05:25:02.832Z,6.43
2023-02-26T05:27:31.543Z,8.63
2023-02-26T05:30:00.593Z,4.05
2023-02-26T05:32:29.142Z,6.18
2023-02-26T05:34:59.068Z,5.28
2023-02-26T05:37:27.496Z,3.60
2023-02-26T05:39:56.134Z,4.85
2023-02-26T05:42:25.395Z,2.55
2023-02-26T05:44:54.143Z,4.70
2023-02-26T05:47:22.501Z,5.10
2023-02-26T05:49:51.184Z,4.22
2023-02-26T05:52:19.585Z,4.35
2023-02-26T05:54:48.230Z,8.10
2023-02-26T05:57:16.613Z,5.93
2023-02-26T05:59:45.308Z,3.70
2023-02-26T06:02:13.806Z,3.78
2023-02-26T06:04:42.586Z,2.85
2023-02-26T06:07:11.119Z,2.55
2023-02-26T06:09:39.803Z,3.08
2023-02-26T06:12:08.371Z,3.13
2023-02-26T06:14:37.180Z,3.97
2023-02-26T06:17:06.866Z,2.35
2023-02-26T06:19:35.651Z,1.90
2023-02-26T06:22:04.097Z,2.28
2023-02-26T06:24:32.939Z,2.30
2023-02-26T06:27:01.329Z,3.25
2023-02-26T06:29:30.054Z,2.03
2023-02-26T06:32:01.447Z,2.60
2023-02-26T06:34:30.185Z,1.60
2023-02-26T06:36:58.583Z,2.50
2023-02-26T06:39:27.536Z,2.63
2023-02-26T06:41:55.904Z,2.40
2023-02-26T06:44:24.605Z,2.40
2023-02-26T06:46:53.064Z,1.27
2023-02-26T06:49:21.936Z,1.50
2023-02-26T06:51:50.345Z,1.83
2023-02-26T06:54:19.269Z,1.40
2023-02-26T06:56:47.646Z,4.93
2023-02-26T06:59:16.630Z,2.65
2023-02-26T07:01:45.100Z,2.55
2023-02-26T07:04:13.746Z,1.55
2023-02-26T07:06:42.368Z,1.15
2023-02-26T07:09:11.358Z,1.42
2023-02-26T07:11:39.886Z,2.22
2023-02-26T07:14:08.549Z,1.40
2023-02-26T07:16:36.900Z,1.20
2023-02-26T07:19:05.612Z,1.60
2023-02-26T07:21:33.867Z,2.03
2023-02-26T07:24:02.543Z,0.65
2023-02-26T07:26:30.958Z,2.25
2023-02-26T07:28:59.593Z,0.70
2023-02-26T07:31:28.286Z,0.95
2023-02-26T07:33:57.117Z,1.02
2023-02-26T07:36:25.786Z,1.13
2023-02-26T07:38:54.692Z,1.05
2023-02-26T07:41:23.690Z,0.73
2023-02-26T07:43:52.483Z,1.98
2023-02-26T07:46:20.896Z,1.85
2023-02-26T07:48:49.639Z,1.58
2023-02-26T07:51:18.000Z,1.05
2023-02-26T07:53:46.650Z,0.75
2023-02-26T07:56:15.108Z,2.75
2023-02-26T07:58:43.738Z,3.75
2023-02-26T08:01:12.138Z,1.70
2023-02-26T08:03:40.792Z,1.90
2023-02-26T08:06:09.148Z,2.10
2023-02-26T08:08:38.302Z,1.42
2023-02-26T08:11:06.964Z,0.63
2023-02-26T08:13:36.094Z,0.75
2023-02-26T08:16:05.438Z,0.82
2023-02-26T08:18:34.789Z,2.35
2023-02-26T08:21:03.821Z,5.13
2023-02-26T08:23:32.872Z,1.27
2023-02-26T08:26:07.097Z,1.55
2023-02-26T08:28:36.051Z,0.50
2023-02-26T08:31:05.007Z,1.08
2023-02-26T08:33:34.045Z,0.95
2023-02-26T08:36:02.675Z,2.65
2023-02-26T08:38:31.855Z,2.15
2023-02-26T08:41:00.641Z,1.73
2023-02-26T08:43:30.151Z,0.82
2023-02-26T08:45:59.865Z,2.20
2023-02-26T08:48:29.115Z,2.03
2023-02-26T08:50:57.690Z,4.22
2023-02-26T08:53:26.719Z,8.77
2023-02-26T08:55:55.286Z,2.28
2023-02-26T08:58:24.273Z,3.38
2023-02-26T09:00:52.848Z,10.45
2023-02-26T09:03:21.771Z,2.17
2023-02-26T09:05:51.996Z,5.63
2023-02-26T09:08:21.535Z,3.08
2023-02-26T09:10:50.298Z,4.63
2023-02-26T09:13:19.181Z,7.40
2023-02-26T09:15:49.550Z,4.88
2023-02-26T09:18:18.459Z,13.73
2023-02-26T09:20:47.259Z,5.72
2023-02-26T09:23:16.158Z,7.28
2023-02-26T09:25:44.751Z,9.88
2023-02-26T09:28:13.938Z,5.97
2023-02-26T09:30:42.635Z,3.17
2023-02-26T09:33:11.678Z,5.18
2023-02-26T09:35:40.239Z,4.97
2023-02-26T09:38:09.237Z,6.28
2023-02-26T09:40:43.807Z,4.35
2023-02-26T09:43:55.932Z,9.63
2023-02-26T09:46:51.328Z,5.28
2023-02-26T09:49:58.852Z,2.60
2023-02-26T09:52:37.828Z,3.35
2023-02-26T09:55:32.602Z,4.95
2023-02-26T09:58:06.522Z,3.42
2023-02-26T10:01:10.765Z,5.63
2023-02-26T10:04:37.840Z,8.40
2023-02-26T10:07:37.672Z,5.57
2023-02-26T10:10:33.546Z,3.33
2023-02-26T10:13:02.782Z,3.90
2023-02-26T10:15:38.039Z,5.07
2023-02-26T10:18:20.206Z,6.78
2023-02-26T10:21:28.317Z,6.07
2023-02-26T10:24:04.944Z,4.57
2023-02-26T10:26:50.723Z,8.50
2023-02-26T10:29:41.221Z,4.28
2023-02-26T10:32:33.706Z,5.82
2023-02-26T10:35:14.613Z,3.15
2023-02-26T10:38:00.149Z,10.93
2023-02-26T10:40:50.147Z,6.18
2023-02-26T10:43:38.701Z,4.70
2023-02-26T10:46:40.496Z,2.40
2023-02-26T10:49:41.135Z,3.33
2023-02-26T10:52:19.858Z,2.38
2023-02-26T10:55:24.365Z,3.78
2023-02-26T10:58:06.912Z,3.90
2023-02-26T11:00:35.985Z,2.20
2023-02-26T11:03:05.936Z,2.22
2023-02-26T11:05:34.840Z,2.72
2023-02-26T11:08:28.777Z,3.83
2023-02-26T11:13:30.595Z,4.97
2023-02-26T11:16:15.476Z,8.07
2023-02-26T11:18:54.298Z,3.90
2023-02-26T11:21:31.043Z,3.38
2023-02-26T11:24:29.181Z,4.18
2023-02-26T11:26:59.174Z,6.55
2023-02-26T11:29:28.103Z,1.38
2023-02-26T11:31:58.479Z,2.83
2023-02-26T11:34:27.467Z,2.63
2023-02-26T11:36:57.825Z,2.53
2023-02-26T11:39:29.958Z,5.95
2023-02-26T11:42:01.443Z,3.17
2023-02-26T11:44:42.377Z,1.63
2023-02-26T11:47:16.969Z,2.28
2023-02-26T11:49:57.247Z,3.85
2023-02-26T11:55:37.912Z,1.80
2023-02-26T11:58:20.652Z,4.82
2023-02-26T12:00:52.739Z,2.25
2023-02-26T12:03:24.639Z,3.03
2023-02-26T12:05:53.583Z,2.30
2023-02-26T12:08:40.896Z,1.25
2023-02-26T12:11:43.570Z,1.38
2023-02-26T12:14:28.066Z,2.35
2023-02-26T12:17:32.384Z,2.40
2023-02-26T12:20:20.169Z,1.23
2023-02-26T12:23:13.636Z,3.78
2023-02-26T12:26:00.301Z,0.90
2023-02-26T12:28:48.765Z,2.83
2023-02-26T12:31:50.628Z,2.88
2023-02-26T12:34:57.437Z,3.05
2023-02-26T12:37:38.209Z,1.20
2023-02-26T12:40:31.170Z,1.35
2023-02-26T12:43:30.512Z,3.63
2023-02-26T12:47:05.545Z,3.88
2023-02-26T12:50:09.817Z,1.13
2023-02-26T12:53:06.269Z,1.67
2023-02-26T12:56:16.366Z,1.55
2023-02-26T12:59:05.317Z,2.53
2023-02-26T13:02:01.864Z,2.45
2023-02-26T13:04:36.547Z,1.27
2023-02-26T13:07:34.617Z,1.58
2023-02-26T13:10:33.783Z,1.60
2023-02-26T13:13:20.478Z,3.83
2023-02-26T13:16:16.931Z,1.33
2023-02-26T13:19:17.902Z,1.80
2023-02-26T13:22:08.902Z,0.70
2023-02-26T13:25:06.286Z,2.83
2023-02-26T13:27:37.886Z,0.95
2023-02-26T13:30:28.282Z,1.38
2023-02-26T13:33:01.907Z,1.58
2023-02-26T13:35:48.605Z,1.15
2023-02-26T13:38:32.391Z,2.78
2023-02-26T13:41:22.597Z,1.20
2023-02-26T13:44:33.247Z,2.25
2023-02-26T13:47:33.713Z,4.20
2023-02-26T13:50:27.881Z,1.45
2023-02-26T13:53:04.874Z,1.00
2023-02-26T13:55:44.962Z,0.60
2023-02-26T13:58:39.334Z,1.40
2023-02-26T14:01:57.481Z,1.13
2023-02-26T14:04:29.818Z,3.25
2023-02-26T14:07:14.639Z,1.58
2023-02-26T14:10:01.382Z,0.82
2023-02-26T14:12:34.814Z,1.45
2023-02-26T14:16:03.226Z,2.35
2023-02-26T14:18:47.868Z,0.95
2023-02-26T14:21:28.881Z,1.50
2023-02-26T14:24:32.553Z,1.95
2023-02-26T14:27:24.456Z,1.55
2023-02-26T14:29:56.376Z,1.40
2023-02-26T14:32:50.688Z,1.17
2023-02-26T14:35:31.751Z,2.72
2023-02-26T14:38:14.266Z,1.17
2023-02-26T14:40:51.927Z,0.70
2023-02-26T14:43:37.003Z,1.20
2023-02-26T14:46:07.210Z,1.13
2023-02-26T14:48:36.520Z,1.27
2023-02-26T14:51:39.876Z,2.30
2023-02-26T14:54:46.151Z,0.97
2023-02-26T14:57:15.998Z,1.05
2023-02-26T15:00:49.558Z,1.27
2023-02-26T15:03:42.247Z,2.88
2023-02-26T15:06:35.586Z,3.03
2023-02-26T15:09:23.895Z,2.30
2023-02-26T15:12:17.708Z,0.98
2023-02-26T15:15:07.599Z,1.48
2023-02-26T15:18:31.017Z,2.00
2023-02-26T15:21:12.038Z,0.85
2023-02-26T15:23:57.188Z,1.17
2023-02-26T15:26:35.238Z,1.77
2023-02-26T15:29:07.519Z,2.97
2023-02-26T15:32:01.320Z,1.75
2023-02-26T15:37:00.854Z,4.55
2023-02-26T15:39:29.378Z,1.50
2023-02-26T15:41:58.348Z,2.08
2023-02-26T15:44:30.959Z,1.80
2023-02-26T15:47:03.262Z,2.78
2023-02-26T15:49:40.626Z,1.73
2023-02-26T15:52:13.064Z,1.85
2023-02-26T15:54:50.699Z,3.13
2023-02-26T15:57:19.479Z,1.77
2023-02-26T15:59:49.929Z,2.78
2023-02-26T16:02:37.728Z,1.65
2023-02-26T16:05:06.553Z,2.67
2023-02-26T16:07:35.466Z,2.30
2023-02-26T16:10:39.414Z,3.13
2023-02-26T16:13:08.807Z,1.98
2023-02-26T16:15:39.195Z,1.58
2023-02-26T16:18:18.677Z,1.42
2023-02-26T16:20:48.980Z,2.80
2023-02-26T16:23:22.721Z,1.67
2023-02-26T16:25:54.965Z,6.55
2023-02-26T16:28:37.997Z,1.85
2023-02-26T16:31:07.286Z,2.72
2023-02-26T16:33:36.085Z,4.57
2023-02-26T16:36:16.131Z,0.93
2023-02-26T16:38:50.025Z,1.85
2023-02-26T16:41:23.897Z,1.77
2023-02-26T16:43:56.968Z,1.13
2023-02-26T16:46:37.789Z,5.75
2023-02-26T16:49:34.813Z,1.92
2023-02-26T16:52:03.206Z,2.17
2023-02-26T16:54:38.411Z,1.65
2023-02-26T16:57:19.238Z,2.05
2023-02-26T16:59:53.858Z,2.17
2023-02-26T17:02:32.205Z,1.92
2023-02-26T17:05:25.315Z,2.42
2023-02-26T17:08:06.226Z,2.60
2023-02-26T17:11:02.820Z,2.78
2023-02-26T17:13:33.311Z,3.90
2023-02-26T17:16:04.308Z,3.13
2023-02-26T17:18:33.266Z,3.10
2023-02-26T17:21:05.861Z,3.28
2023-02-26T17:23:37.259Z,2.90
2023-02-26T17:26:06.336Z,4.85
2023-02-26T17:28:39.982Z,6.47
2023-02-26T17:31:08.877Z,2.67
2023-02-26T17:33:37.467Z,5.78
2023-02-26T17:36:07.601Z,3.67
2023-02-26T17:38:35.961Z,4.88
2023-02-26T17:41:05.166Z,5.97
2023-02-26T17:43:33.807Z,7.00
2023-02-26T17:46:02.579Z,5.72
2023-02-26T17:48:31.266Z,6.78
2023-02-26T17:50:59.901Z,17.35
2023-02-26T17:53:28.315Z,7.50
2023-02-26T17:55:57.622Z,9.43
2023-02-26T17:58:30.638Z,6.25
2023-02-26T18:01:00.001Z,5.80
2023-02-26T18:03:28.373Z,7.35
2023-02-26T18:05:57.346Z,6.22
2023-02-26T18:08:31.843Z,5.30
2023-02-26T18:11:01.323Z,5.70
2023-02-26T18:13:30.118Z,6.60
2023-02-26T18:15:59.144Z,5.72
2023-02-26T18:18:27.805Z,4.40
2023-02-26T18:20:56.504Z,8.18
2023-02-26T18:23:25.994Z,4.90
2023-02-26T18:25:55.038Z,5.95
2023-02-26T18:28:28.024Z,7.43
2023-02-26T18:30:57.590Z,5.43
2023-02-26T18:33:26.288Z,7.28
2023-02-26T18:35:56.959Z,7.22
2023-02-26T18:38:27.920Z,4.63
2023-02-26T18:40:56.892Z,5.45
2023-02-26T18:43:25.387Z,8.70
2023-02-26T18:45:54.270Z,3.97
2023-02-26T18:48:22.778Z,4.50
2023-02-26T18:50:51.429Z,4.75
2023-02-26T18:53:23.621Z,4.70
2023-02-26T18:55:53.209Z,4.10
2023-02-26T18:58:22.295Z,5.75
2023-02-26T19:00:51.652Z,5.43
2023-02-26T19:03:19.942Z,5.43
2023-02-26T19:06:03.512Z,5.40
2023-02-26T19:08:32.327Z,5.10
2023-02-26T19:11:01.034Z,4.80
2023-02-26T19:13:29.516Z,4.45
2023-02-26T19:15:58.292Z,4.38
2023-02-26T19:18:26.677Z,4.75
2023-02-26T19:20:55.436Z,4.00
2023-02-26T19:23:24.225Z,6.47
2023-02-26T19:25:52.951Z,6.18
2023-02-26T19:28:21.322Z,4.68
2023-02-26T19:30:54.640Z,4.57
2023-02-26T19:33:24.157Z,3.47
2023-02-26T19:35:53.078Z,3.85
2023-02-26T19:38:21.436Z,3.10
2023-02-26T19:40:50.847Z,3.42
2023-02-26T19:43:19.201Z,6.38
2023-02-26T19:45:48.097Z,4.68
2023-02-26T19:48:16.545Z,5.10
2023-02-26T19:50:45.956Z,15.70
2023-02-26T19:53:16.305Z,15.43
2023-02-26T19:55:45.077Z,25.83
2023-02-26T19:58:14.507Z,17.90
2023-02-26T20:00:43.337Z,20.73
2023-02-26T20:03:11.697Z,13.05
2023-02-26T20:05:40.536Z,12.48
2023-02-26T20:08:09.067Z,15.25
2023-02-26T20:10:37.857Z,14.50
2023-02-26T20:13:11.769Z,9.50
2023-02-26T20:15:41.257Z,10.38
2023-02-26T20:18:10.226Z,8.88
2023-02-26T20:20:47.785Z,21.50
2023-02-26T20:23:24.892Z,7.45
2023-02-26T20:25:59.203Z,7.22
2023-02-26T20:28:35.772Z,10.40
2023-02-26T20:31:10.861Z,9.25
2023-02-26T20:33:42.593Z,5.82
2023-02-26T20:36:15.356Z,4.50
2023-02-26T20:38:46.861Z,5.37
2023-02-26T20:41:16.365Z,5.93
2023-02-26T20:43:46.466Z,6.35
2023-02-26T20:46:15.521Z,4.70
2023-02-26T20:48:44.967Z,4.95
2023-02-26T20:51:16.405Z,4.55
2023-02-26T20:53:47.022Z,4.65
2023-02-26T20:56:18.940Z,7.00
2023-02-26T20:58:47.805Z,5.38
2023-02-26T21:01:16.433Z,5.72
2023-02-26T21:03:44.813Z,7.18
2023-02-26T21:06:13.729Z,3.42
2023-02-26T21:08:44.077Z,3.50
2023-02-26T21:11:12.838Z,3.30
2023-02-26T21:13:41.471Z,4.80
2023-02-26T21:16:10.384Z,4.47
2023-02-26T21:18:38.830Z,3.53
2023-02-26T21:21:07.499Z,2.80
2023-02-26T21:23:35.868Z,3.63
2023-02-26T21:26:04.649Z,3.90
2023-02-26T21:28:33.040Z,2.80
2023-02-26T21:31:01.965Z,4.22
2023-02-26T21:33:30.393Z,4.43
2023-02-26T21:35:59.551Z,3.72
2023-02-26T21:38:28.392Z,5.55
2023-02-26T21:40:57.480Z,2.40
2023-02-26T21:43:25.893Z,3.65
2023-02-26T21:45:54.751Z,2.65
2023-02-26T21:48:23.450Z,3.05
2023-02-26T21:50:52.238Z,3.92
2023-02-26T21:53:20.839Z,4.50
2023-02-26T21:55:49.465Z,3.00
2023-02-26T21:58:17.856Z,3.00
2023-02-26T22:00:46.879Z,2.97
2023-02-26T22:03:15.274Z,4.38
2023-02-26T22:05:44.284Z,2.83
2023-02-26T22:08:12.661Z,4.97
2023-02-26T22:10:42.038Z,5.10
2023-02-26T22:13:10.306Z,4.07
2023-02-26T22:15:38.859Z,3.60
2023-02-26T22:18:07.286Z,3.13
2023-02-26T22:20:36.165Z,2.17
2023-02-26T22:23:05.013Z,4.90
2023-02-26T22:25:33.877Z,2.70
2023-02-26T22:28:02.733Z,2.13
2023-02-26T22:30:31.381Z,3.42
2023-02-26T22:32:59.709Z,3.55
2023-02-26T22:35:28.636Z,2.42
2023-02-26T22:37:56.913Z,2.40
2023-02-26T22:40:25.875Z,2.40
2023-02-26T22:42:54.603Z,3.60
2023-02-26T22:45:24.087Z,2.05
2023-02-26T22:47:52.750Z,2.83
2023-02-26T22:50:21.577Z,2.00
2023-02-26T22:52:49.907Z,2.67
2023-02-26T22:55:18.928Z,2.30
2023-02-26T22:57:47.662Z,1.63
2023-02-26T23:00:20.870Z,2.38
2023-02-26T23:02:49.942Z,2.00
2023-02-26T23:05:20.597Z,1.63
2023-02-26T23:07:49.429Z,3.25
2023-02-26T23:10:19.658Z,1.52
2023-02-26T23:12:48.293Z,3.53
2023-02-26T23:15:17.246Z,2.22
2023-02-26T23:17:45.499Z,2.25
2023-02-26T23:20:14.946Z,2.25
2023-02-26T23:22:44.034Z,1.65
2023-02-26T23:25:12.843Z,1.42
2023-02-26T23:27:41.159Z,5.32
2023-02-26T23:30:10.573Z,2.15
2023-02-26T23:32:38.884Z,1.77
2023-02-26T23:35:07.813Z,1.98
2023-02-26T23:37:36.386Z,2.25
2023-02-26T23:40:05.825Z,1.65
2023-02-26T23:42:34.199Z,1.58
2023-02-26T23:45:03.225Z,3.55
2023-02-26T23:47:31.643Z,1.90
2023-02-26T23:50:00.533Z,3.88
2023-02-26T23:52:28.820Z,3.03
2023-02-26T23:54:57.676Z,6.15
2023-02-26T23:57:26.083Z,5.10
2023-02-26T23:59:54.842Z,1.52
